Time;durP1;ratioP1;P1;durP2;ratioP2;P2;SDS_P1;SDS_P2;PMS_P1;PMS_P2;Temp;Humidity;BMP_temperature;BMP_pressure;BME280_temperature;BME280_humidity;BME280_pressure;Samples;Min_cycle;Max_cycle;Signal;HPM_P1;HPM_P2
2023/09/18 00:01:11;;;;;;;29.58;19.73;;;;;;;14.79;100.00;99397.91;5048626;28;20502;-44
2023/09/18 00:03:39;;;;;;;29.80;19.48;;;;;;;14.76;100.00;99390.38;5043379;28;20052;-44
2023/09/18 00:06:08;;;;;;;24.83;16.13;;;;;;;14.75;100.00;99386.78;5048838;28;20543;-46
2023/09/18 00:08:36;;;;;;;22.48;15.68;;;;;;;14.74;100.00;99381.63;5050089;28;20068;-45
2023/09/18 00:11:03;;;;;;;24.13;16.23;;;;;;;14.72;100.00;99382.00;5047959;28;20037;-45
2023/09/18 00:13:30;;;;;;;24.52;15.68;;;;;;;14.71;100.00;99386.03;5050381;28;20099;-45
2023/09/18 00:15:59;;;;;;;23.30;16.33;;;;;;;14.71;100.00;99383.22;5049609;28;20056;-45
2023/09/18 00:18:27;;;;;;;22.67;15.30;;;;;;;14.69;100.00;99380.06;5050093;28;20410;-45
2023/09/18 00:20:54;;;;;;;23.45;15.13;;;;;;;14.68;100.00;99378.47;5050865;28;20048;-45
2023/09/18 00:23:21;;;;;;;19.67;14.40;;;;;;;14.68;100.00;99380.47;5050022;28;20445;-45
2023/09/18 00:25:48;;;;;;;20.70;14.82;;;;;;;14.66;100.00;99374.50;5049687;28;20055;-45
2023/09/18 00:28:15;;;;;;;20.77;14.18;;;;;;;14.65;100.00;99373.69;5050316;28;20044;-45
2023/09/18 00:30:48;;;;;;;19.77;13.85;;;;;;;14.66;100.00;99371.72;5051037;28;20041;-45
2023/09/18 00:33:16;;;;;;;19.95;13.63;;;;;;;14.64;100.00;99369.31;5048589;28;20085;-45
2023/09/18 00:35:48;;;;;;;20.15;14.75;;;;;;;14.63;100.00;99370.53;5049281;28;20048;-44
2023/09/18 00:38:16;;;;;;;21.42;13.82;;;;;;;14.62;100.00;99368.94;5048489;28;20442;-45
2023/09/18 00:40:43;;;;;;;19.65;12.98;;;;;;;14.60;100.00;99366.56;5049729;28;20053;-44
2023/09/18 00:43:11;;;;;;;20.13;13.95;;;;;;;14.58;100.00;99359.81;5047728;28;20398;-45
2023/09/18 00:45:42;;;;;;;17.55;12.45;;;;;;;14.56;100.00;99356.66;5046374;28;20049;-44
2023/09/18 00:48:09;;;;;;;15.85;11.95;;;;;;;14.54;100.00;99359.03;5048413;28;20045;-44
2023/09/18 00:50:38;;;;;;;16.80;11.80;;;;;;;14.54;100.00;99361.81;5046493;28;20060;-45
2023/09/18 00:53:07;;;;;;;18.48;12.43;;;;;;;14.53;100.00;99349.09;5050070;28;20041;-48
2023/09/18 00:55:37;;;;;;;22.23;13.35;;;;;;;14.52;100.00;99345.53;5051022;28;20095;-44
2023/09/18 00:58:07;;;;;;;21.10;13.30;;;;;;;14.52;100.00;99342.75;5051760;28;20567;-45
2023/09/18 01:00:34;;;;;;;17.45;12.05;;;;;;;14.52;100.00;99339.16;5055064;28;20147;-43
2023/09/18 01:03:03;;;;;;;19.08;13.43;;;;;;;14.49;100.00;99331.59;5051833;28;20049;-44
2023/09/18 01:05:33;;;;;;;18.75;12.40;;;;;;;14.48;100.00;99335.59;5053923;28;20053;-43
2023/09/18 01:08:01;;;;;;;16.08;12.45;;;;;;;14.46;100.00;99332.41;5052637;28;20045;-44
2023/09/18 01:10:34;;;;;;;17.48;13.23;;;;;;;14.44;100.00;99318.91;5057186;28;20047;-45
2023/09/18 01:13:19;;;;;;;18.38;12.32;;;;;;;14.42;100.00;99320.50;5053590;28;20045;-44
2023/09/18 01:15:57;;;;;;;19.58;12.60;;;;;;;14.40;100.00;99323.69;5053351;28;20495;-44
2023/09/18 01:18:25;;;;;;;19.25;13.57;;;;;;;14.39;100.00;99310.19;5053816;28;20506;-44
2023/09/18 01:20:52;;;;;;;21.80;13.80;;;;;;;14.38;100.00;99309.38;5053632;28;20131;-45
2023/09/18 01:23:19;;;;;;;20.90;14.73;;;;;;;14.39;100.00;99304.63;5053887;28;20052;-45
2023/09/18 01:25:46;;;;;;;22.42;15.20;;;;;;;14.38;100.00;99303.00;5048728;28;20068;-45
2023/09/18 01:28:16;;;;;;;22.33;13.95;;;;;;;14.37;100.00;99285.53;5052378;28;20053;-44
2023/09/18 01:30:44;;;;;;;22.27;15.35;;;;;;;14.36;100.00;99283.94;5052988;28;20071;-47
2023/09/18 01:33:12;;;;;;;21.65;15.23;;;;;;;14.36;100.00;99288.72;5053746;28;20505;-45
2023/09/18 01:35:40;;;;;;;22.67;15.55;;;;;;;14.36;100.00;99285.94;5053029;28;20049;-44
2023/09/18 01:38:10;;;;;;;22.42;15.48;;;;;;;14.36;100.00;99277.56;5053460;28;20049;-45
2023/09/18 01:40:38;;;;;;;24.88;16.08;;;;;;;14.38;100.00;99275.16;5051679;28;20489;-44
2023/09/18 01:43:06;;;;;;;28.45;16.63;;;;;;;14.36;100.00;99272.81;5050867;28;21192;-45
2023/09/18 01:45:34;;;;;;;24.65;15.00;;;;;;;14.37;100.00;99268.03;5050359;28;20053;-45
2023/09/18 01:48:05;;;;;;;26.20;16.33;;;;;;;14.36;100.00;99263.66;5051714;28;20051;-45
2023/09/18 01:50:33;;;;;;;27.02;16.38;;;;;;;14.33;100.00;99262.47;5051637;28;20399;-44
2023/09/18 01:53:00;;;;;;;27.25;17.48;;;;;;;14.32;100.00;99248.97;5050452;28;20048;-44
2023/09/18 01:55:28;;;;;;;28.42;17.05;;;;;;;14.31;100.00;99250.97;5051141;28;20041;-44
2023/09/18 01:57:56;;;;;;;31.45;17.55;;;;;;;14.31;100.00;99253.75;5052449;28;20414;-44
2023/09/18 02:00:23;;;;;;;32.65;19.42;;;;;;;14.32;100.00;99254.53;5051077;28;20076;-45
2023/09/18 02:02:51;;;;;;;38.38;20.33;;;;;;;14.33;100.00;99258.91;5049684;28;20053;-45
2023/09/18 02:05:24;;;;;;;37.90;19.95;;;;;;;14.33;100.00;99250.53;5047663;28;20136;-44
2023/09/18 02:07:51;;;;;;;35.10;19.65;;;;;;;14.31;100.00;99264.06;5051784;28;20080;-45
2023/09/18 02:10:19;;;;;;;40.55;20.98;;;;;;;14.29;100.00;99258.91;5050589;28;20063;-45
2023/09/18 02:12:47;;;;;;;38.83;20.95;;;;;;;14.28;100.00;99251.75;5049824;28;20094;-45
2023/09/18 02:15:16;;;;;;;35.85;19.52;;;;;;;14.27;100.00;99247.38;5050154;28;20044;-47
2023/09/18 02:17:44;;;;;;;42.95;21.73;;;;;;;14.25;100.00;99244.19;5051401;28;20037;-44
2023/09/18 02:20:11;;;;;;;40.50;21.85;;;;;;;14.25;100.00;99237.84;5051904;28;20048;-47
2023/09/18 02:22:41;;;;;;;40.63;21.02;;;;;;;14.24;100.00;99231.50;5048616;28;20064;-45
2023/09/18 02:25:08;;;;;;;39.55;21.65;;;;;;;14.24;100.00;99227.91;5050042;28;20136;-44
2023/09/18 02:27:35;;;;;;;44.63;23.10;;;;;;;14.24;100.00;99230.69;5049676;28;20041;-49
2023/09/18 02:30:03;;;;;;;35.38;21.17;;;;;;;14.24;100.00;99225.94;5050995;28;20061;-46
2023/09/18 02:32:30;;;;;;;33.53;19.92;;;;;;;14.24;100.00;99219.56;5051643;28;20045;-44
2023/09/18 02:34:58;;;;;;;38.08;20.55;;;;;;;14.25;100.00;99221.13;5048509;28;20434;-44
2023/09/18 02:37:26;;;;;;;39.42;21.48;;;;;;;14.24;100.00;99209.22;5052092;28;20055;-44
2023/09/18 02:39:53;;;;;;;37.03;20.52;;;;;;;14.24;100.00;99211.22;5051583;28;20127;-44
2023/09/18 02:42:20;;;;;;;35.40;19.20;;;;;;;14.24;100.00;99209.22;5048661;28;20043;-44
2023/09/18 02:44:47;;;;;;;34.42;18.23;;;;;;;14.23;100.00;99212.41;5051074;28;20072;-43
2023/09/18 02:47:15;;;;;;;36.55;19.75;;;;;;;14.24;100.00;99214.00;5051477;28;20044;-43
2023/09/18 02:49:42;;;;;;;31.70;17.33;;;;;;;14.24;100.00;99214.78;5050558;28;20048;-44
2023/09/18 02:52:09;;;;;;;34.50;18.98;;;;;;;14.22;100.00;99211.59;5050090;28;20491;-44
2023/09/18 02:54:36;;;;;;;31.20;17.92;;;;;;;14.23;100.00;99207.63;5049827;28;20376;-45
2023/09/18 02:57:04;;;;;;;30.02;16.98;;;;;;;14.23;100.00;99207.63;5049608;28;20048;-44
2023/09/18 02:59:32;;;;;;;30.30;18.27;;;;;;;14.22;100.00;99206.03;5049737;28;20041;-45
2023/09/18 03:01:59;;;;;;;27.98;16.20;;;;;;;14.23;100.00;99201.25;5102711;22;20063;-43
2023/09/18 03:04:26;;;;;;;29.20;16.67;;;;;;;14.22;100.00;99200.47;5071289;28;20051;-43
2023/09/18 03:06:54;;;;;;;25.20;15.30;;;;;;;14.21;100.00;99209.25;5091744;28;20134;-44
2023/09/18 03:09:21;;;;;;;21.13;14.02;;;;;;;14.20;100.00;99202.06;5087686;28;20032;-43
2023/09/18 03:11:49;;;;;;;20.85;12.35;;;;;;;14.18;100.00;99199.72;5077896;28;20473;-49
2023/09/18 03:14:16;;;;;;;15.88;9.80;;;;;;;14.16;100.00;99195.75;5083376;28;20065;-43
2023/09/18 03:16:44;;;;;;;13.32;8.43;;;;;;;14.15;100.00;99189.38;5072226;28;20089;-44
2023/09/18 03:19:12;;;;;;;11.82;7.90;;;;;;;14.13;100.00;99193.78;5084563;28;20043;-44
2023/09/18 03:21:39;;;;;;;7.90;5.97;;;;;;;14.10;100.00;99186.22;5089607;28;20052;-44
2023/09/18 03:24:07;;;;;;;7.90;5.13;;;;;;;14.09;100.00;99198.56;5089162;28;20044;-44
2023/09/18 03:26:34;;;;;;;6.53;4.30;;;;;;;14.08;100.00;99199.78;5090406;28;20570;-44
2023/09/18 03:29:01;;;;;;;6.00;4.03;;;;;;;14.08;100.00;99194.22;5089946;28;20102;-44
2023/09/18 03:31:29;;;;;;;7.45;4.65;;;;;;;14.06;100.00;99199.41;5090858;28;20039;-44
2023/09/18 03:33:57;;;;;;;6.70;3.08;;;;;;;14.06;100.00;99204.97;5087069;28;20064;-43
2023/09/18 03:36:24;;;;;;;6.43;3.45;;;;;;;14.02;100.00;99193.84;5071911;28;20048;-43
2023/09/18 03:38:51;;;;;;;4.65;2.90;;;;;;;13.99;100.00;99203.78;5069183;28;20378;-45
2023/09/18 03:41:18;;;;;;;3.85;2.92;;;;;;;13.98;100.00;99199.41;5082797;28;20570;-44
2023/09/18 03:43:46;;;;;;;3.60;2.95;;;;;;;13.97;100.00;99203.41;5084504;28;20097;-43
2023/09/18 03:46:14;;;;;;;4.80;3.33;;;;;;;13.95;100.00;99203.00;5067450;28;20134;-43
2023/09/18 03:48:42;;;;;;;3.40;2.55;;;;;;;13.92;100.00;99198.28;5091270;28;20047;-43
2023/09/18 03:51:09;;;;;;;3.42;2.83;;;;;;;13.91;100.00;99205.03;5091815;28;20329;-43
2023/09/18 03:53:37;;;;;;;5.07;3.20;;;;;;;13.87;100.00;99200.69;5091381;28;20105;-44
2023/09/18 03:56:05;;;;;;;5.75;2.90;;;;;;;13.84;100.00;99196.72;5091510;28;20068;-44
2023/09/18 03:58:32;;;;;;;9.80;2.83;;;;;;;13.87;100.00;99200.69;5071227;28;20076;-43
2023/09/18 04:01:02;;;;;;;5.10;3.55;;;;;;;13.84;100.00;99191.16;5089646;28;20051;-44
2023/09/18 04:03:29;;;;;;;5.22;3.20;;;;;;;13.82;100.00;99199.09;5073551;28;20121;-44
2023/09/18 04:05:56;;;;;;;4.30;2.97;;;;;;;13.79;100.00;99194.31;5091154;28;20044;-44
2023/09/18 04:08:24;;;;;;;5.65;3.38;;;;;;;13.79;100.00;99190.78;5091691;28;20449;-43
2023/09/18 04:10:51;;;;;;;5.28;3.28;;;;;;;13.79;100.00;99188.75;5073126;28;20048;-44
2023/09/18 04:13:18;;;;;;;6.95;3.10;;;;;;;13.80;100.00;99195.13;5086850;28;20143;-44
2023/09/18 04:15:45;;;;;;;3.60;3.05;;;;;;;13.77;100.00;99191.16;5088608;28;20163;-44
2023/09/18 04:18:13;;;;;;;3.67;2.78;;;;;;;13.71;100.00;99184.47;5088014;28;20044;-44
2023/09/18 04:20:40;;;;;;;6.13;3.33;;;;;;;13.69;100.00;99192.38;5083092;28;20048;-46
2023/09/18 04:23:22;;;;;;;3.78;2.50;;;;;;;13.63;100.00;99202.38;5086675;28;20132;-45
2023/09/18 04:25:50;;;;;;;3.67;2.45;;;;;;;13.60;100.00;99192.03;5096665;28;20048;-44
2023/09/18 04:28:19;;;;;;;6.53;3.45;;;;;;;13.53;100.00;99183.72;5089615;28;20054;-50
2023/09/18 04:30:46;;;;;;;5.90;2.40;;;;;;;13.47;100.00;99182.56;5090305;28;20052;-44
2023/09/18 04:33:14;;;;;;;5.32;2.40;;;;;;;13.40;100.00;99182.56;5094382;28;20051;-44
2023/09/18 04:35:43;;;;;;;4.57;2.17;;;;;;;13.35;100.00;99180.19;5091704;28;20051;-44
2023/09/18 04:38:10;;;;;;;3.90;2.28;;;;;;;13.27;100.00;99176.66;5092028;28;22182;-44
2023/09/18 04:40:37;;;;;;;2.92;2.17;;;;;;;13.23;100.00;99186.19;5092884;28;20071;-48
2023/09/18 04:43:08;;;;;;;4.40;2.10;;;;;;;13.20;100.00;99175.88;5092745;28;20044;-44
2023/09/18 04:45:35;;;;;;;7.35;2.28;;;;;;;13.15;100.00;99185.44;5084342;28;20072;-44
2023/09/18 04:48:05;;;;;;;2.60;1.98;;;;;;;13.08;100.00;99176.31;5094855;28;20056;-44
2023/09/18 04:50:33;;;;;;;3.38;2.13;;;;;;;13.01;100.00;99165.16;5073962;28;20072;-44
2023/09/18 04:53:01;;;;;;;3.97;2.55;;;;;;;12.97;100.00;99164.41;5093061;28;20048;-44
2023/09/18 04:55:28;;;;;;;3.83;2.00;;;;;;;12.93;100.00;99169.16;5095003;28;20047;-45
2023/09/18 04:57:58;;;;;;;4.10;2.00;;;;;;;12.90;100.00;99165.19;5091422;28;20048;-45
2023/09/18 05:00:26;;;;;;;2.58;2.15;;;;;;;12.91;100.00;99161.22;5085122;28;20072;-43
2023/09/18 05:02:54;;;;;;;7.28;1.95;;;;;;;12.89;100.00;99173.94;5090109;28;20056;-44
2023/09/18 05:05:21;;;;;;;3.20;2.00;;;;;;;12.86;100.00;99155.28;5089720;28;20056;-44
2023/09/18 05:07:48;;;;;;;3.17;2.60;;;;;;;12.84;100.00;99162.00;5090103;28;20507;-44
2023/09/18 05:10:16;;;;;;;8.85;2.83;;;;;;;12.78;100.00;99166.41;5091881;28;20140;-44
2023/09/18 05:12:43;;;;;;;3.22;2.22;;;;;;;12.73;100.00;99175.09;5092442;28;20048;-45
2023/09/18 05:15:15;;;;;;;2.85;2.08;;;;;;;12.69;100.00;99166.00;5091159;28;20523;-46
2023/09/18 05:17:47;;;;;;;4.80;2.35;;;;;;;12.65;100.00;99165.22;5092333;28;20550;-44
2023/09/18 05:20:16;;;;;;;6.05;2.50;;;;;;;12.64;100.00;99163.63;5092533;28;20400;-44
2023/09/18 05:22:45;;;;;;;6.18;2.65;;;;;;;12.61;100.00;99161.63;5085314;28;20083;-44
2023/09/18 05:25:15;;;;;;;6.65;2.85;;;;;;;12.60;100.00;99164.81;5093249;28;20128;-44
2023/09/18 05:27:45;;;;;;;4.88;2.88;;;;;;;12.54;100.00;99161.66;5090238;28;20050;-44
2023/09/18 05:30:20;;;;;;;3.63;2.92;;;;;;;12.52;100.00;99149.34;5071326;28;20456;-44
2023/09/18 05:32:48;;;;;;;6.32;3.40;;;;;;;12.48;100.00;99159.66;5092103;28;20047;-44
2023/09/18 05:35:16;;;;;;;4.85;2.78;;;;;;;12.47;100.00;99155.31;5094241;28;20428;-44
2023/09/18 05:37:44;;;;;;;5.55;3.00;;;;;;;12.50;100.00;99154.50;5085549;28;20052;-45
2023/09/18 05:40:12;;;;;;;3.92;3.25;;;;;;;12.52;100.00;99158.44;5090393;28;20130;-44
2023/09/18 05:42:44;;;;;;;7.43;3.00;;;;;;;12.56;100.00;99156.50;5082502;28;20044;-44
2023/09/18 05:45:13;;;;;;;7.50;2.83;;;;;;;12.56;100.00;99150.94;5072601;28;20048;-46
2023/09/18 05:47:42;;;;;;;7.55;3.03;;;;;;;12.54;100.00;99153.31;5083203;28;20490;-44
2023/09/18 05:50:15;;;;;;;8.10;2.90;;;;;;;12.51;100.00;99153.31;5099630;28;20141;-46
2023/09/18 05:52:44;;;;;;;6.40;2.60;;;;;;;12.49;100.00;99156.50;5093800;28;20074;-45
2023/09/18 05:55:13;;;;;;;3.45;2.60;;;;;;;12.46;100.00;99157.28;5080519;28;20123;-45
2023/09/18 05:57:41;;;;;;;2.55;2.03;;;;;;;12.43;100.00;99149.75;5093705;28;20048;-44
2023/09/18 06:00:12;;;;;;;7.80;2.17;;;;;;;12.40;100.00;99147.75;5093410;28;20466;-44
2023/09/18 06:02:40;;;;;;;3.72;1.92;;;;;;;12.36;100.00;99148.97;5091531;28;20056;-45
2023/09/18 06:05:11;;;;;;;2.65;1.90;;;;;;;12.35;100.00;99155.69;5090268;28;20150;-44
2023/09/18 06:07:39;;;;;;;6.43;1.83;;;;;;;12.32;100.00;99148.13;5092874;28;20055;-47
2023/09/18 06:10:06;;;;;;;5.53;1.77;;;;;;;12.29;100.00;99154.47;5087554;28;20474;-44
2023/09/18 06:12:33;;;;;;;4.43;1.98;;;;;;;12.25;100.00;99153.69;5090686;28;20056;-44
2023/09/18 06:15:01;;;;;;;2.22;1.63;;;;;;;12.21;100.00;99156.47;5091014;28;20048;-45
2023/09/18 06:17:28;;;;;;;6.82;1.67;;;;;;;12.18;100.00;99160.81;5088955;28;20075;-44
2023/09/18 06:19:55;;;;;;;3.10;1.83;;;;;;;12.19;100.00;99158.84;5092404;28;20052;-46
2023/09/18 06:22:22;;;;;;;7.60;1.75;;;;;;;12.16;100.00;99159.63;5090239;28;20043;-45
2023/09/18 06:24:51;;;;;;;3.50;1.27;;;;;;;12.13;100.00;99168.72;5087702;28;20043;-43
2023/09/18 06:27:18;;;;;;;3.53;1.25;;;;;;;12.13;100.00;99165.97;5087081;28;20052;-45
2023/09/18 06:29:45;;;;;;;2.92;1.50;;;;;;;12.14;100.00;99173.09;5091510;28;20059;-46
2023/09/18 06:32:13;;;;;;;4.93;1.33;;;;;;;12.15;100.00;99174.69;5082615;28;20054;-44
2023/09/18 06:34:43;;;;;;;5.15;1.35;;;;;;;12.17;100.00;99181.44;5091257;28;20148;-44
2023/09/18 06:37:12;;;;;;;2.30;1.40;;;;;;;12.16;100.00;99179.03;5089732;28;20044;-43
2023/09/18 06:39:39;;;;;;;4.15;1.25;;;;;;;12.15;100.00;99177.47;5077943;28;20075;-44
2023/09/18 06:42:07;;;;;;;6.72;1.67;;;;;;;12.17;100.00;99183.41;5088801;28;20047;-44
2023/09/18 06:44:34;;;;;;;2.83;1.45;;;;;;;12.19;100.00;99175.50;5089464;28;20044;-44
2023/09/18 06:47:01;;;;;;;2.03;1.20;;;;;;;12.21;100.00;99190.56;5087634;28;20121;-44
2023/09/18 06:49:28;;;;;;;9.52;2.92;;;;;;;12.23;100.00;99192.16;5088577;28;20075;-44
2023/09/18 06:51:56;;;;;;;8.18;2.15;;;;;;;12.21;100.00;99189.75;5087664;28;20036;-44
2023/09/18 06:54:23;;;;;;;4.82;1.23;;;;;;;12.23;100.00;99188.16;5088616;28;20044;-43
2023/09/18 06:56:50;;;;;;;1.30;1.20;;;;;;;12.25;100.00;99190.56;5084308;28;20487;-43
2023/09/18 06:59:17;;;;;;;4.07;0.90;;;;;;;12.25;100.00;99201.66;5085430;28;20135;-44
2023/09/18 07:01:44;;;;;;;2.25;1.20;;;;;;;12.23;100.00;99201.28;5088983;28;20527;-45
2023/09/18 07:04:11;;;;;;;3.53;1.30;;;;;;;12.22;100.00;99208.00;5086583;28;20480;-44
2023/09/18 07:06:40;;;;;;;2.03;1.13;;;;;;;12.27;100.00;99206.81;5085613;28;20051;-44
2023/09/18 07:09:07;;;;;;;2.33;1.20;;;;;;;12.24;100.00;99211.16;5088377;28;20044;-44
2023/09/18 07:11:35;;;;;;;3.08;1.05;;;;;;;12.20;100.00;99210.38;5092013;28;20124;-44
2023/09/18 07:14:05;;;;;;;4.80;1.63;;;;;;;12.21;100.00;99211.94;5092596;28;20131;-44
2023/09/18 07:16:34;;;;;;;5.80;1.50;;;;;;;12.21;100.00;99223.84;5092164;28;20036;-43
2023/09/18 07:19:04;;;;;;;6.47;1.15;;;;;;;12.18;100.00;99205.19;5092091;28;20051;-43
2023/09/18 07:21:31;;;;;;;3.72;1.00;;;;;;;12.17;100.00;99205.63;5091858;28;20051;-45
2023/09/18 07:23:59;;;;;;;4.78;1.88;;;;;;;12.10;100.00;99205.56;5088898;28;20043;-43
2023/09/18 07:26:26;;;;;;;2.25;1.08;;;;;;;12.07;100.00;99209.16;5091483;28;20079;-44
2023/09/18 07:28:53;;;;;;;5.30;0.85;;;;;;;12.06;100.00;99205.59;5090300;28;20474;-44
2023/09/18 07:31:21;;;;;;;4.22;1.02;;;;;;;12.03;100.00;99220.22;5091455;28;20653;-43
2023/09/18 07:33:48;;;;;;;4.10;1.10;;;;;;;12.06;100.00;99224.22;5091411;28;20132;-44
2023/09/18 07:36:18;;;;;;;4.35;0.95;;;;;;;12.04;100.00;99223.81;5091071;28;20051;-44
2023/09/18 07:38:45;;;;;;;3.90;1.08;;;;;;;12.03;100.00;99227.75;5091697;28;20044;-46
2023/09/18 07:41:15;;;;;;;2.67;1.00;;;;;;;12.05;100.00;99228.16;5091408;28;20048;-44
2023/09/18 07:43:42;;;;;;;5.00;1.00;;;;;;;12.07;100.00;99226.56;5091092;28;20044;-45
2023/09/18 07:46:09;;;;;;;5.57;1.35;;;;;;;12.06;100.00;99230.56;5091536;28;20672;-44
2023/09/18 07:48:37;;;;;;;6.72;1.23;;;;;;;12.04;100.00;99243.22;5091336;28;20058;-43
2023/09/18 07:51:05;;;;;;;2.67;0.63;;;;;;;12.01;100.00;99246.78;5091019;28;20105;-43
2023/09/18 07:53:32;;;;;;;6.20;1.20;;;;;;;12.02;100.00;99262.25;5083352;28;20054;-44
2023/09/18 07:56:01;;;;;;;6.85;2.30;;;;;;;12.07;100.00;99264.63;5090085;28;20452;-44
2023/09/18 07:58:33;;;;;;;4.72;0.85;;;;;;;12.19;100.00;99270.63;5071869;28;20052;-43
2023/09/18 08:01:00;;;;;;;7.93;0.90;;;;;;;12.34;100.00;99279.00;5088359;28;20483;-46
2023/09/18 08:03:28;;;;;;;7.22;1.30;;;;;;;12.45;100.00;99277.81;5063689;28;20037;-43
2023/09/18 08:05:56;;;;;;;4.82;1.40;;;;;;;12.51;100.00;99279.03;5071478;28;20132;-43
2023/09/18 08:08:24;;;;;;;10.52;1.38;;;;;;;12.58;100.00;99273.47;5070331;28;20047;-44
2023/09/18 08:10:52;;;;;;;4.43;1.17;;;;;;;12.59;100.00;99277.84;5071087;28;20410;-43
2023/09/18 08:13:20;;;;;;;6.57;1.45;;;;;;;12.63;100.00;99302.81;5070910;28;20040;-42
2023/09/18 08:15:47;;;;;;;5.05;1.83;;;;;;;12.67;100.00;99290.56;5070388;28;20540;-44
2023/09/18 08:18:14;;;;;;;7.93;1.67;;;;;;;12.69;100.00;99293.72;5073613;28;20044;-44
2023/09/18 08:20:42;;;;;;;12.07;2.53;;;;;;;12.68;100.00;99292.13;5070474;28;20497;-44
2023/09/18 08:23:13;;;;;;;7.55;2.47;;;;;;;12.70;100.00;99288.97;5073106;28;20048;-44
2023/09/18 08:25:41;;;;;;;4.15;1.15;;;;;;;12.72;100.00;99297.69;5070870;28;20102;-42
2023/09/18 08:28:08;;;;;;;16.40;1.65;;;;;;;12.75;100.00;99299.69;5070424;28;20048;-43
2023/09/18 08:30:37;;;;;;;7.60;2.42;;;;;;;12.75;100.00;99297.72;5065657;28;20041;-44
2023/09/18 08:33:04;;;;;;;7.03;1.42;;;;;;;12.77;100.00;99297.31;5071164;28;20048;-43
2023/09/18 08:35:32;;;;;;;8.43;1.83;;;;;;;12.79;100.00;99295.72;5069021;28;20045;-44
2023/09/18 08:38:00;;;;;;;12.45;1.88;;;;;;;12.89;100.00;99307.25;5068349;28;20048;-45
2023/09/18 08:40:27;;;;;;;10.88;2.20;;;;;;;12.96;100.00;99301.69;5067189;28;20440;-44
2023/09/18 08:42:55;;;;;;;8.98;1.52;;;;;;;13.04;100.00;99297.72;5069255;28;20490;-44
2023/09/18 08:46:04;;;;;;;10.38;1.42;;;;;;;13.14;100.00;99292.19;5066313;28;20072;-43
2023/09/18 08:48:35;;;;;;;6.15;2.60;;;;;;;13.25;100.00;99303.31;5007921;28;20384;-44
2023/09/18 08:51:04;;;;;;;13.35;1.63;;;;;;;13.34;100.00;99298.94;5015956;28;20092;-44
2023/09/18 08:53:33;;;;;;;7.13;1.48;;;;;;;13.59;100.00;99295.31;5027618;28;20114;-44
2023/09/18 08:56:02;;;;;;;10.63;2.10;;;;;;;13.89;100.00;99309.56;5062034;28;20492;-50
2023/09/18 08:58:37;;;;;;;14.52;1.92;;;;;;;14.23;100.00;99312.59;5065785;28;20040;-44
2023/09/18 09:01:06;;;;;;;9.52;1.27;;;;;;;14.65;100.00;99309.63;5064964;28;20410;-43
2023/09/18 09:03:34;;;;;;;10.55;1.55;;;;;;;15.41;100.00;99314.25;5062967;28;20052;-44
2023/09/18 09:06:01;;;;;;;13.95;2.65;;;;;;;16.34;100.00;99313.63;5068066;28;20095;-42
2023/09/18 09:08:29;;;;;;;9.82;2.17;;;;;;;17.44;100.00;99315.63;5070448;28;20122;-44
2023/09/18 09:10:59;;;;;;;13.27;2.35;;;;;;;18.38;98.54;99314.22;5045237;28;20528;-45
2023/09/18 09:13:27;;;;;;;10.95;1.70;;;;;;;19.16;93.25;99321.72;5067296;28;20366;-43
2023/09/18 09:16:11;;;;;;;8.30;1.65;;;;;;;19.91;88.43;99321.41;5053388;28;20559;-43
2023/09/18 09:18:49;;;;;;;5.35;1.58;;;;;;;20.36;86.75;99326.22;5068486;28;20052;-44
2023/09/18 09:21:18;;;;;;;8.20;2.10;;;;;;;20.93;80.79;99317.66;5070712;28;20379;-46
2023/09/18 09:23:56;;;;;;;9.77;1.85;;;;;;;21.28;75.60;99314.97;5071216;28;20135;-43
2023/09/18 09:26:23;;;;;;;12.52;2.60;;;;;;;21.59;73.59;99324.38;5069639;28;20051;-47
2023/09/18 09:28:50;;;;;;;12.30;2.33;;;;;;;22.04;71.34;99322.00;5073542;28;20147;-43
2023/09/18 09:31:28;;;;;;;11.40;1.85;;;;;;;22.48;71.21;99322.00;5068303;28;20068;-43
2023/09/18 09:33:57;;;;;;;8.90;2.60;;;;;;;22.78;66.33;99324.88;5068763;28;20040;-43
2023/09/18 09:36:25;;;;;;;8.90;1.83;;;;;;;22.91;64.47;99308.63;5071131;28;20044;-45
2023/09/18 09:38:57;;;;;;;8.45;2.35;;;;;;;23.02;63.55;99325.16;5075023;28;20040;-44
2023/09/18 09:41:27;;;;;;;11.40;1.92;;;;;;;22.82;60.23;99331.16;5069187;28;20098;-43
2023/09/18 09:43:56;;;;;;;7.55;2.13;;;;;;;22.76;59.35;99321.75;5072392;28;20048;-46
2023/09/18 09:46:25;;;;;;;6.53;1.25;;;;;;;22.73;57.97;99311.38;5052595;28;20052;-44
2023/09/18 09:49:01;;;;;;;8.18;1.60;;;;;;;22.78;58.69;99307.94;5072454;28;20071;-44
2023/09/18 09:51:29;;;;;;;10.45;1.75;;;;;;;22.88;56.24;99305.94;5069776;28;20040;-43
2023/09/18 09:53:58;;;;;;;4.70;1.02;;;;;;;22.88;55.43;99300.31;5070055;28;20139;-44
2023/09/18 09:56:48;;;;;;;6.55;1.60;;;;;;;22.95;56.28;99316.97;5070192;28;20079;-43
2023/09/18 09:59:15;;;;;;;7.80;1.98;;;;;;;23.13;54.08;99316.25;5071973;28;20056;-46
2023/09/18 10:01:46;;;;;;;9.32;2.22;;;;;;;23.07;52.83;99318.91;5077330;28;20047;-43
2023/09/18 10:04:17;;;;;;;9.30;1.50;;;;;;;22.71;52.92;99313.09;5090190;28;20478;-45
2023/09/18 10:06:51;;;;;;;5.40;1.48;;;;;;;22.61;53.32;99328.38;5069362;28;20044;-42
2023/09/18 10:09:22;;;;;;;7.93;1.60;;;;;;;22.69;52.05;99324.06;5090053;28;20120;-44
2023/09/18 10:11:55;;;;;;;7.57;1.63;;;;;;;22.87;52.21;99327.75;5085231;28;20036;-43
2023/09/18 10:14:35;;;;;;;10.52;2.40;;;;;;;22.85;51.60;99329.44;5087947;28;20186;-43
2023/09/18 10:17:22;;;;;;;9.50;1.88;;;;;;;22.75;51.11;99322.19;5084534;28;20045;-44
2023/09/18 10:20:09;;;;;;;8.57;1.85;;;;;;;22.76;51.58;99332.25;5087451;28;20082;-43
2023/09/18 10:22:42;;;;;;;11.10;1.92;;;;;;;22.86;50.66;99343.13;5073977;28;20068;-43
2023/09/18 10:25:19;;;;;;;8.45;1.65;;;;;;;22.78;49.98;99338.19;5073934;28;20044;-46
2023/09/18 10:27:53;;;;;;;11.07;1.80;;;;;;;22.86;49.34;99347.97;5091458;28;20498;-45
2023/09/18 10:30:22;;;;;;;11.68;2.08;;;;;;;22.96;49.59;99346.75;5092444;28;20552;-43
2023/09/18 10:32:51;;;;;;;9.63;1.83;;;;;;;22.29;49.77;99335.97;5092999;28;20135;-46
2023/09/18 10:35:19;;;;;;;10.52;2.53;;;;;;;21.85;49.98;99337.13;5092961;28;20487;-44
2023/09/18 10:37:49;;;;;;;6.68;1.30;;;;;;;21.66;49.73;99335.38;5093904;28;20405;-44
2023/09/18 10:40:26;;;;;;;10.93;1.77;;;;;;;21.45;49.81;99341.72;5092469;28;20446;-44
2023/09/18 10:42:54;;;;;;;5.57;1.70;;;;;;;21.15;50.38;99346.69;5074541;28;20055;-42
2023/09/18 10:45:21;;;;;;;7.35;1.58;;;;;;;20.32;51.08;99342.38;5091953;28;20494;-45
2023/09/18 10:47:52;;;;;;;7.82;1.75;;;;;;;19.42;53.06;99345.97;5091176;28;20044;-44
2023/09/18 10:50:29;;;;;;;5.50;1.58;;;;;;;18.92;54.26;99327.91;5092627;28;20509;-42
2023/09/18 10:52:59;;;;;;;8.93;1.52;;;;;;;18.74;55.47;99329.09;5092286;28;20044;-43
2023/09/18 10:55:26;;;;;;;7.43;1.55;;;;;;;18.90;55.30;99331.16;5093034;28;20473;-43
2023/09/18 10:57:55;;;;;;;6.35;1.60;;;;;;;18.88;55.48;99330.00;5092143;28;20048;-43
2023/09/18 11:00:25;;;;;;;4.32;1.17;;;;;;;18.60;55.96;99323.81;5092391;28;20551;-42
2023/09/18 11:02:52;;;;;;;8.25;2.10;;;;;;;18.41;56.96;99316.19;5091525;28;20109;-43
2023/09/18 11:06:01;;;;;;;5.85;1.40;;;;;;;18.12;57.58;99315.19;5092217;28;20044;-44
2023/09/18 11:08:35;;;;;;;6.80;1.65;;;;;;;17.88;58.74;99322.84;5079420;28;20036;-43
2023/09/18 11:11:14;;;;;;;4.78;1.40;;;;;;;17.55;59.15;99316.22;5092062;28;20523;-43
2023/09/18 11:13:45;;;;;;;10.45;2.15;;;;;;;17.39;60.27;99318.91;5092528;28;20451;-43
2023/09/18 11:16:21;;;;;;;9.20;1.30;;;;;;;17.39;61.43;99324.50;5092015;28;20040;-43
2023/09/18 11:18:58;;;;;;;6.25;1.38;;;;;;;17.26;61.12;99308.75;5074444;28;20052;-43
2023/09/18 11:21:28;;;;;;;7.28;2.33;;;;;;;17.08;61.67;99325.78;5091948;28;20055;-43
2023/09/18 11:23:59;;;;;;;11.77;1.40;;;;;;;17.00;62.15;99313.13;5091972;28;20044;-43
2023/09/18 11:26:47;;;;;;;3.80;1.03;;;;;;;16.88;61.87;99319.31;5091835;28;20143;-42
2023/09/18 11:29:19;;;;;;;4.97;1.10;;;;;;;16.82;61.84;99316.22;5091367;28;20317;-43
2023/09/18 11:31:50;;;;;;;;;;;;;;;16.69;61.61;99314.41;5088866;28;20147;-43